sensor_id;sensor_type;location;lat;lon;timestamp;pressure;altitude;pressure_sealevel;temperature;humidity
75942;BME280;64622;46.220;19.878;2023-06-10T00:02:13;100008.31;;;15.07;100.00
75942;BME280;64622;46.220;19.878;2023-06-10T00:04:40;100011.88;;;15.14;100.00
75942;BME280;64622;46.220;19.878;2023-06-10T00:07:06;100004.50;;;15.02;100.00
75942;BME280;64622;46.220;19.878;2023-06-10T00:09:36;100018.19;;;15.00;100.00
75942;BME280;64622;46.220;19.878;2023-06-10T00:12:07;100009.22;;;14.93;100.00
75942;BME280;64622;46.220;19.878;2023-06-10T00:14:37;100004.69;;;15.00;100.00
75942;BME280;64622;46.220;19.878;2023-06-10T00:17:05;99996.84;;;14.99;100.00
75942;BME280;64622;46.220;19.878;2023-06-10T00:19:36;100002.06;;;15.07;100.00
75942;BME280;64622;46.220;19.878;2023-06-10T00:22:05;99999.38;;;15.07;100.00
75942;BME280;64622;46.220;19.878;2023-06-10T00:24:32;99999.38;;;15.07;100.00
75942;BME280;64622;46.220;19.878;2023-06-10T00:26:58;99997.34;;;15.09;100.00
75942;BME280;64622;46.220;19.878;2023-06-10T00:29:25;100001.03;;;15.08;100.00
75942;BME280;64622;46.220;19.878;2023-06-10T00:31:52;100006.25;;;15.09;100.00
75942;BME280;64622;46.220;19.878;2023-06-10T00:34:24;100000.84;;;15.09;100.00
75942;BME280;64622;46.220;19.878;2023-06-10T00:36:52;99997.53;;;15.07;100.00
75942;BME280;64622;46.220;19.878;2023-06-10T00:39:18;100001.69;;;15.10;100.00
75942;BME280;64622;46.220;19.878;2023-06-10T00:41:45;99996.56;;;15.15;100.00
75942;BME280;64622;46.220;19.878;2023-06-10T00:44:12;99983.50;;;15.18;100.00
75942;BME280;64622;46.220;19.878;2023-06-10T00:46:38;99990.19;;;15.22;100.00
75942;BME280;64622;46.220;19.878;2023-06-10T00:49:05;99990.62;;;15.26;100.00
75942;BME280;64622;46.220;19.878;2023-06-10T00:51:32;99981.50;;;15.27;100.00
75942;BME280;64622;46.220;19.878;2023-06-10T00:53:59;99991.38;;;15.41;100.00
75942;BME280;64622;46.220;19.878;2023-06-10T00:56:26;99992.44;;;15.46;100.00
75942;BME280;64622;46.220;19.878;2023-06-10T00:58:53;100001.62;;;15.52;100.00
75942;BME280;64622;46.220;19.878;2023-06-10T01:01:20;100002.25;;;15.54;100.00
75942;BME280;64622;46.220;19.878;2023-06-10T01:03:47;99997.47;;;15.49;100.00
75942;BME280;64622;46.220;19.878;2023-06-10T01:09:22;100001.00;;;15.56;100.00
75942;BME280;64622;46.220;19.878;2023-06-10T01:14:29;100003.69;;;15.50;100.00
75942;BME280;64622;46.220;19.878;2023-06-10T01:16:58;100003.66;;;15.43;100.00
75942;BME280;64622;46.220;19.878;2023-06-10T01:19:26;100008.00;;;15.44;100.00
75942;BME280;64622;46.220;19.878;2023-06-10T01:21:55;99999.66;;;15.39;100.00
75942;BME280;64622;46.220;19.878;2023-06-10T01:24:22;99992.19;;;15.41;100.00
75942;BME280;64622;46.220;19.878;2023-06-10T01:26:50;99997.22;;;15.44;100.00
75942;BME280;64622;46.220;19.878;2023-06-10T01:29:41;99987.03;;;15.46;100.00
75942;BME280;64622;46.220;19.878;2023-06-10T01:32:20;100003.94;;;15.55;100.00
75942;BME280;64622;46.220;19.878;2023-06-10T01:34:48;100004.13;;;15.53;100.00
75942;BME280;64622;46.220;19.878;2023-06-10T01:37:18;99998.50;;;15.48;100.00
75942;BME280;64622;46.220;19.878;2023-06-10T01:39:46;100001.38;;;15.47;100.00
75942;BME280;64622;46.220;19.878;2023-06-10T01:42:13;100003.44;;;15.45;100.00
75942;BME280;64622;46.220;19.878;2023-06-10T01:44:40;100004.69;;;15.49;100.00
75942;BME280;64622;46.220;19.878;2023-06-10T01:47:08;100006.16;;;15.51;100.00
75942;BME280;64622;46.220;19.878;2023-06-10T01:49:35;100008.06;;;15.51;100.00
75942;BME280;64622;46.220;19.878;2023-06-10T01:52:02;100001.38;;;15.47;100.00
75942;BME280;64622;46.220;19.878;2023-06-10T01:54:28;99998.38;;;15.35;100.00
75942;BME280;64622;46.220;19.878;2023-06-10T01:56:55;99999.75;;;15.25;100.00
75942;BME280;64622;46.220;19.878;2023-06-10T01:59:22;99994.91;;;15.20;100.00
75942;BME280;64622;46.220;19.878;2023-06-10T02:01:48;100002.63;;;15.23;100.00
75942;BME280;64622;46.220;19.878;2023-06-10T02:04:15;99996.62;;;15.21;100.00
75942;BME280;64622;46.220;19.878;2023-06-10T02:06:42;99999.09;;;15.23;100.00
75942;BME280;64622;46.220;19.878;2023-06-10T02:09:09;100007.19;;;15.23;100.00
75942;BME280;64622;46.220;19.878;2023-06-10T02:11:35;99996.38;;;15.16;100.00
75942;BME280;64622;46.220;19.878;2023-06-10T02:14:02;100013.25;;;15.04;100.00
75942;BME280;64622;46.220;19.878;2023-06-10T02:16:30;100008.06;;;15.02;100.00
75942;BME280;64622;46.220;19.878;2023-06-10T02:18:57;100012.78;;;15.00;100.00
75942;BME280;64622;46.220;19.878;2023-06-10T02:21:25;100016.34;;;15.01;100.00
75942;BME280;64622;46.220;19.878;2023-06-10T02:23:52;100011.00;;;15.07;100.00
75942;BME280;64622;46.220;19.878;2023-06-10T02:26:18;100013.94;;;15.12;100.00
75942;BME280;64622;46.220;19.878;2023-06-10T02:28:45;100018.19;;;15.21;100.00
75942;BME280;64622;46.220;19.878;2023-06-10T02:31:13;100019.91;;;15.29;100.00
75942;BME280;64622;46.220;19.878;2023-06-10T02:33:39;100010.22;;;15.34;100.00
75942;BME280;64622;46.220;19.878;2023-06-10T02:36:06;100005.84;;;15.33;100.00
75942;BME280;64622;46.220;19.878;2023-06-10T02:38:33;100004.97;;;15.33;100.00
75942;BME280;64622;46.220;19.878;2023-06-10T02:41:00;100013.78;;;15.41;100.00
75942;BME280;64622;46.220;19.878;2023-06-10T02:43:27;100003.66;;;15.43;100.00
75942;BME280;64622;46.220;19.878;2023-06-10T02:45:54;100018.78;;;15.44;100.00
75942;BME280;64622;46.220;19.878;2023-06-10T02:48:23;100026.38;;;15.34;100.00
75942;BME280;64622;46.220;19.878;2023-06-10T02:50:49;100013.28;;;15.31;100.00
75942;BME280;64622;46.220;19.878;2023-06-10T02:53:16;100014.88;;;15.26;100.00
75942;BME280;64622;46.220;19.878;2023-06-10T02:55:43;100016.16;;;15.30;100.00
75942;BME280;64622;46.220;19.878;2023-06-10T02:58:11;100011.34;;;15.25;100.00
75942;BME280;64622;46.220;19.878;2023-06-10T03:00:38;100009.87;;;15.23;100.00
75942;BME280;64622;46.220;19.878;2023-06-10T03:03:07;100001.69;;;15.10;100.00
75942;BME280;64622;46.220;19.878;2023-06-10T03:05:35;100013.09;;;15.12;100.00
75942;BME280;64622;46.220;19.878;2023-06-10T03:08:02;100013.53;;;15.15;100.00
75942;BME280;64622;46.220;19.878;2023-06-10T03:10:29;100017.09;;;15.16;100.00
75942;BME280;64622;46.220;19.878;2023-06-10T03:12:55;100010.56;;;15.04;100.00
75942;BME280;64622;46.220;19.878;2023-06-10T03:15:23;100024.66;;;15.06;100.00
75942;BME280;64622;46.220;19.878;2023-06-10T03:17:51;100019.91;;;15.08;100.00
75942;BME280;64622;46.220;19.878;2023-06-10T03:20:17;100019.72;;;15.09;100.00
75942;BME280;64622;46.220;19.878;2023-06-10T03:22:45;100022.41;;;15.09;100.00
75942;BME280;64622;46.220;19.878;2023-06-10T03:25:11;100026.75;;;15.04;100.00
75942;BME280;64622;46.220;19.878;2023-06-10T03:27:42;100024.84;;;15.04;100.00
75942;BME280;64622;46.220;19.878;2023-06-10T03:30:09;100027.97;;;15.01;100.00
75942;BME280;64622;46.220;19.878;2023-06-10T03:32:37;100028.16;;;15.00;100.00
75942;BME280;64622;46.220;19.878;2023-06-10T03:35:04;100022.31;;;14.96;100.00
75942;BME280;64622;46.220;19.878;2023-06-10T03:37:32;100028.78;;;15.02;100.00
75942;BME280;64622;46.220;19.878;2023-06-10T03:39:58;100023.78;;;14.99;100.00
75942;BME280;64622;46.220;19.878;2023-06-10T03:42:25;100035.81;;;15.03;100.00
75942;BME280;64622;46.220;19.878;2023-06-10T03:44:52;100033.13;;;15.03;100.00
75942;BME280;64622;46.220;19.878;2023-06-10T03:47:19;100031.66;;;15.00;100.00
75942;BME280;64622;46.220;19.878;2023-06-10T03:49:46;100032.56;;;15.07;100.00
75942;BME280;64622;46.220;19.878;2023-06-10T03:52:13;100029.72;;;15.15;100.00
75942;BME280;64622;46.220;19.878;2023-06-10T03:54:39;100027.09;;;15.22;100.00
75942;BME280;64622;46.220;19.878;2023-06-10T03:57:06;100034.59;;;15.47;100.00
75942;BME280;64622;46.220;19.878;2023-06-10T03:59:33;100040.53;;;15.70;100.00
75942;BME280;64622;46.220;19.878;2023-06-10T04:01:59;100034.44;;;15.89;100.00
75942;BME280;64622;46.220;19.878;2023-06-10T04:04:27;100029.31;;;16.01;100.00
75942;BME280;64622;46.220;19.878;2023-06-10T04:06:53;100030.22;;;16.14;100.00
75942;BME280;64622;46.220;19.878;2023-06-10T04:09:22;100027.13;;;16.17;100.00
75942;BME280;64622;46.220;19.878;2023-06-10T04:11:49;100024.19;;;16.19;100.00
75942;BME280;64622;46.220;19.878;2023-06-10T04:14:16;100028.66;;;15.99;100.00
75942;BME280;64622;46.220;19.878;2023-06-10T04:16:43;100031.03;;;16.08;100.00
75942;BME280;64622;46.220;19.878;2023-06-10T04:19:10;100029.59;;;16.12;100.00
75942;BME280;64622;46.220;19.878;2023-06-10T04:21:38;100028.41;;;16.28;100.00
75942;BME280;64622;46.220;19.878;2023-06-10T04:24:04;100032.66;;;16.43;100.00
75942;BME280;64622;46.220;19.878;2023-06-10T04:26:32;100038.72;;;16.58;100.00
75942;BME280;64622;46.220;19.878;2023-06-10T04:28:59;100032.12;;;16.67;100.00
75942;BME280;64622;46.220;19.878;2023-06-10T04:31:25;100035.44;;;16.69;100.00
75942;BME280;64622;46.220;19.878;2023-06-10T04:33:53;100027.09;;;16.64;100.00
75942;BME280;64622;46.220;19.878;2023-06-10T04:36:19;100035.00;;;16.66;100.00
75942;BME280;64622;46.220;19.878;2023-06-10T04:38:46;100030.84;;;16.63;100.00
75942;BME280;64622;46.220;19.878;2023-06-10T04:41:13;100035.84;;;16.60;100.00
75942;BME280;64622;46.220;19.878;2023-06-10T04:43:39;100034.59;;;16.62;100.00
75942;BME280;64622;46.220;19.878;2023-06-10T04:46:06;100029.00;;;16.70;100.00
75942;BME280;64622;46.220;19.878;2023-06-10T04:48:33;100025.88;;;16.73;100.00
75942;BME280;64622;46.220;19.878;2023-06-10T04:51:03;100035.88;;;16.86;100.00
75942;BME280;64622;46.220;19.878;2023-06-10T04:53:29;100028.41;;;16.88;100.00
75942;BME280;64622;46.220;19.878;2023-06-10T04:55:57;100031.53;;;16.98;100.00
75942;BME280;64622;46.220;19.878;2023-06-10T04:58:24;100027.19;;;17.16;100.00
75942;BME280;64622;46.220;19.878;2023-06-10T05:00:50;100037.59;;;17.32;100.00
75942;BME280;64622;46.220;19.878;2023-06-10T05:03:17;100031.56;;;17.56;100.00
75942;BME280;64622;46.220;19.878;2023-06-10T05:05:44;100037.53;;;17.97;100.00
75942;BME280;64622;46.220;19.878;2023-06-10T05:08:10;100043.06;;;18.28;100.00
75942;BME280;64622;46.220;19.878;2023-06-10T05:10:37;100033.63;;;18.50;100.00
75942;BME280;64622;46.220;19.878;2023-06-10T05:13:04;100037.03;;;18.26;100.00
75942;BME280;64622;46.220;19.878;2023-06-10T05:15:31;100034.84;;;18.61;100.00
75942;BME280;64622;46.220;19.878;2023-06-10T05:17:57;100039.97;;;18.69;100.00
75942;BME280;64622;46.220;19.878;2023-06-10T05:20:25;100034.47;;;18.88;100.00
75942;BME280;64622;46.220;19.878;2023-06-10T05:22:52;100043.25;;;18.77;100.00
75942;BME280;64622;46.220;19.878;2023-06-10T05:25:18;100048.44;;;19.23;100.00
75942;BME280;64622;46.220;19.878;2023-06-10T05:27:45;100042.38;;;19.70;100.00
75942;BME280;64622;46.220;19.878;2023-06-10T05:30:12;100046.16;;;20.29;100.00
75942;BME280;64622;46.220;19.878;2023-06-10T05:32:39;100045.84;;;20.55;100.00
75942;BME280;64622;46.220;19.878;2023-06-10T05:35:06;100045.75;;;20.62;100.00
75942;BME280;64622;46.220;19.878;2023-06-10T05:37:33;100040.47;;;20.49;100.00
75942;BME280;64622;46.220;19.878;2023-06-10T05:40:01;100042.78;;;20.16;99.98
75942;BME280;64622;46.220;19.878;2023-06-10T05:42:27;100041.63;;;20.41;100.00
75942;BME280;64622;46.220;19.878;2023-06-10T05:44:54;100032.03;;;20.39;100.00
75942;BME280;64622;46.220;19.878;2023-06-10T05:47:21;100044.41;;;20.53;100.00
75942;BME280;64622;46.220;19.878;2023-06-10T05:49:47;100041.22;;;20.85;99.80
75942;BME280;64622;46.220;19.878;2023-06-10T05:52:15;100047.16;;;21.12;99.89
75942;BME280;64622;46.220;19.878;2023-06-10T05:54:43;100041.75;;;21.35;99.79
75942;BME280;64622;46.220;19.878;2023-06-10T05:57:09;100039.41;;;21.61;99.49
75942;BME280;64622;46.220;19.878;2023-06-10T05:59:36;100037.41;;;21.57;98.90
75942;BME280;64622;46.220;19.878;2023-06-10T06:02:03;100043.81;;;22.08;98.81
75942;BME280;64622;46.220;19.878;2023-06-10T06:04:30;100037.44;;;22.03;98.29
75942;BME280;64622;46.220;19.878;2023-06-10T06:06:58;100039.88;;;22.27;98.85
75942;BME280;64622;46.220;19.878;2023-06-10T06:09:25;100039.44;;;21.96;98.54
75942;BME280;64622;46.220;19.878;2023-06-10T06:11:52;100040.37;;;22.01;98.04
75942;BME280;64622;46.220;19.878;2023-06-10T06:14:18;100033.87;;;21.91;97.91
75942;BME280;64622;46.220;19.878;2023-06-10T06:16:45;100039.16;;;21.51;97.87
75942;BME280;64622;46.220;19.878;2023-06-10T06:19:11;100039.59;;;21.25;97.36
75942;BME280;64622;46.220;19.878;2023-06-10T06:21:38;100037.75;;;20.96;97.11
75942;BME280;64622;46.220;19.878;2023-06-10T06:24:05;100039.56;;;21.14;96.68
75942;BME280;64622;46.220;19.878;2023-06-10T06:26:31;100039.53;;;21.02;97.19
75942;BME280;64622;46.220;19.878;2023-06-10T06:28:58;100048.28;;;21.45;96.82
75942;BME280;64622;46.220;19.878;2023-06-10T06:31:25;100043.72;;;21.92;96.77
75942;BME280;64622;46.220;19.878;2023-06-10T06:33:51;100037.78;;;21.83;96.93
75942;BME280;64622;46.220;19.878;2023-06-10T06:36:18;100053.87;;;22.98;96.99
75942;BME280;64622;46.220;19.878;2023-06-10T06:38:45;100049.44;;;23.53;97.09
75942;BME280;64622;46.220;19.878;2023-06-10T06:41:11;100046.09;;;24.39;95.79
75942;BME280;64622;46.220;19.878;2023-06-10T06:43:38;100042.66;;;24.48;95.10
75942;BME280;64622;46.220;19.878;2023-06-10T06:46:07;100042.56;;;24.60;92.75
75942;BME280;64622;46.220;19.878;2023-06-10T06:48:34;100042.03;;;24.41;92.47
75942;BME280;64622;46.220;19.878;2023-06-10T06:51:01;100050.00;;;23.72;93.41
75942;BME280;64622;46.220;19.878;2023-06-10T06:53:27;100040.66;;;23.51;94.29
75942;BME280;64622;46.220;19.878;2023-06-10T06:55:54;100050.25;;;23.21;94.31
75942;BME280;64622;46.220;19.878;2023-06-10T06:58:21;100055.91;;;23.03;94.07
75942;BME280;64622;46.220;19.878;2023-06-10T07:00:47;100044.63;;;22.71;93.80
75942;BME280;64622;46.220;19.878;2023-06-10T07:03:14;100044.59;;;22.83;94.07
75942;BME280;64622;46.220;19.878;2023-06-10T07:05:41;100056.66;;;23.43;93.44
75942;BME280;64622;46.220;19.878;2023-06-10T07:08:08;100046.38;;;23.50;93.44
75942;BME280;64622;46.220;19.878;2023-06-10T07:10:35;100045.84;;;23.86;93.18
75942;BME280;64622;46.220;19.878;2023-06-10T07:13:02;100047.63;;;23.75;93.13
75942;BME280;64622;46.220;19.878;2023-06-10T07:15:28;100038.31;;;24.31;91.84
75942;BME280;64622;46.220;19.878;2023-06-10T07:17:55;100050.03;;;24.26;92.06
75942;BME280;64622;46.220;19.878;2023-06-10T07:20:21;100044.78;;;24.03;91.62
75942;BME280;64622;46.220;19.878;2023-06-10T07:22:48;100046.41;;;24.42;91.25
75942;BME280;64622;46.220;19.878;2023-06-10T07:25:15;100052.78;;;24.69;89.29
75942;BME280;64622;46.220;19.878;2023-06-10T07:27:41;100051.91;;;25.38;88.14
75942;BME280;64622;46.220;19.878;2023-06-10T07:30:08;100038.09;;;25.91;85.71
75942;BME280;64622;46.220;19.878;2023-06-10T07:32:35;100040.56;;;26.44;83.09
75942;BME280;64622;46.220;19.878;2023-06-10T07:35:02;100048.84;;;27.41;80.09
75942;BME280;64622;46.220;19.878;2023-06-10T07:37:28;100040.87;;;27.84;77.75
75942;BME280;64622;46.220;19.878;2023-06-10T07:39:56;100048.53;;;28.22;75.58
75942;BME280;64622;46.220;19.878;2023-06-10T07:42:22;100040.22;;;28.47;70.66
75942;BME280;64622;46.220;19.878;2023-06-10T07:44:49;100039.44;;;27.17;73.87
75942;BME280;64622;46.220;19.878;2023-06-10T07:47:15;100032.28;;;26.96;75.83
75942;BME280;64622;46.220;19.878;2023-06-10T07:49:42;100037.19;;;26.22;76.44
75942;BME280;64622;46.220;19.878;2023-06-10T07:52:08;100022.78;;;25.64;77.33
75942;BME280;64622;46.220;19.878;2023-06-10T07:54:35;100035.06;;;25.56;78.53
75942;BME280;64622;46.220;19.878;2023-06-10T07:57:02;100022.12;;;24.67;81.42
75942;BME280;64622;46.220;19.878;2023-06-10T07:59:28;100037.06;;;25.34;81.16
75942;BME280;64622;46.220;19.878;2023-06-10T08:01:55;100024.69;;;26.46;77.51
75942;BME280;64622;46.220;19.878;2023-06-10T08:04:22;100037.25;;;26.37;75.94
75942;BME280;64622;46.220;19.878;2023-06-10T08:06:48;100030.63;;;26.95;74.43
75942;BME280;64622;46.220;19.878;2023-06-10T08:09:15;100028.50;;;27.47;70.65
75942;BME280;64622;46.220;19.878;2023-06-10T08:11:42;100016.50;;;28.51;67.94
75942;BME280;64622;46.220;19.878;2023-06-10T08:14:09;100035.03;;;28.21;66.49
75942;BME280;64622;46.220;19.878;2023-06-10T08:16:35;100038.13;;;27.89;68.04
75942;BME280;64622;46.220;19.878;2023-06-10T08:19:02;100020.13;;;28.42;65.99
75942;BME280;64622;46.220;19.878;2023-06-10T08:21:28;100024.63;;;27.73;67.68
75942;BME280;64622;46.220;19.878;2023-06-10T08:23:56;100024.63;;;27.78;67.18
75942;BME280;64622;46.220;19.878;2023-06-10T08:26:23;100023.41;;;26.64;72.32
75942;BME280;64622;46.220;19.878;2023-06-10T08:28:50;100015.06;;;25.92;75.13
75942;BME280;64622;46.220;19.878;2023-06-10T08:31:16;100011.81;;;25.27;77.89
75942;BME280;64622;46.220;19.878;2023-06-10T08:33:43;100018.62;;;24.98;77.52
75942;BME280;64622;46.220;19.878;2023-06-10T08:36:10;100015.12;;;25.03;76.87
75942;BME280;64622;46.220;19.878;2023-06-10T08:38:37;100019.00;;;26.06;73.64
75942;BME280;64622;46.220;19.878;2023-06-10T08:41:05;100013.16;;;26.49;71.74
75942;BME280;64622;46.220;19.878;2023-06-10T08:43:37;100024.63;;;27.18;69.82
75942;BME280;64622;46.220;19.878;2023-06-10T08:46:07;100016.69;;;27.21;67.52
75942;BME280;64622;46.220;19.878;2023-06-10T08:48:35;100013.97;;;28.65;62.96
75942;BME280;64622;46.220;19.878;2023-06-10T08:51:06;100003.88;;;28.99;58.88
75942;BME280;64622;46.220;19.878;2023-06-10T08:53:36;99995.47;;;29.52;57.48
75942;BME280;64622;46.220;19.878;2023-06-10T08:56:05;99993.69;;;29.33;57.57
75942;BME280;64622;46.220;19.878;2023-06-10T08:58:33;100000.31;;;29.32;57.87
75942;BME280;64622;46.220;19.878;2023-06-10T09:01:01;99996.41;;;29.71;53.72
75942;BME280;64622;46.220;19.878;2023-06-10T09:03:28;99999.72;;;28.96;55.40
75942;BME280;64622;46.220;19.878;2023-06-10T09:05:56;99994.69;;;29.13;54.75
75942;BME280;64622;46.220;19.878;2023-06-10T09:08:23;99992.47;;;30.06;53.01
75942;BME280;64622;46.220;19.878;2023-06-10T09:10:50;99995.91;;;28.92;54.50
75942;BME280;64622;46.220;19.878;2023-06-10T09:13:17;99991.88;;;30.09;53.14
75942;BME280;64622;46.220;19.878;2023-06-10T09:15:44;99995.06;;;30.86;49.18
75942;BME280;64622;46.220;19.878;2023-06-10T09:18:12;99992.59;;;31.41;47.78
75942;BME280;64622;46.220;19.878;2023-06-10T09:20:39;99991.63;;;31.13;45.76
75942;BME280;64622;46.220;19.878;2023-06-10T09:23:06;99981.00;;;31.39;46.97
75942;BME280;64622;46.220;19.878;2023-06-10T09:25:37;99974.22;;;30.33;50.54
75942;BME280;64622;46.220;19.878;2023-06-10T09:28:06;99967.38;;;28.10;58.18
75942;BME280;64622;46.220;19.878;2023-06-10T09:30:38;99968.13;;;28.20;58.71
75942;BME280;64622;46.220;19.878;2023-06-10T09:33:13;99968.59;;;27.44;60.53
75942;BME280;64622;46.220;19.878;2023-06-10T09:35:46;99975.44;;;27.01;62.66
75942;BME280;64622;46.220;19.878;2023-06-10T09:38:21;99966.84;;;26.83;64.15
75942;BME280;64622;46.220;19.878;2023-06-10T09:40:49;99973.06;;;26.43;64.68
75942;BME280;64622;46.220;19.878;2023-06-10T09:43:17;99972.84;;;28.78;57.44
75942;BME280;64622;46.220;19.878;2023-06-10T09:45:44;99962.13;;;30.29;52.74
75942;BME280;64622;46.220;19.878;2023-06-10T09:48:10;99961.53;;;30.32;50.58
75942;BME280;64622;46.220;19.878;2023-06-10T09:50:45;99965.44;;;29.79;51.09
75942;BME280;64622;46.220;19.878;2023-06-10T09:53:12;99962.28;;;30.38;47.68
75942;BME280;64622;46.220;19.878;2023-06-10T09:55:40;99966.81;;;31.59;46.74
75942;BME280;64622;46.220;19.878;2023-06-10T09:58:07;99948.34;;;32.27;45.23
75942;BME280;64622;46.220;19.878;2023-06-10T10:00:34;99952.81;;;31.69;44.87
75942;BME280;64622;46.220;19.878;2023-06-10T10:03:01;99950.47;;;31.76;44.44
75942;BME280;64622;46.220;19.878;2023-06-10T10:05:28;99948.53;;;32.57;42.44
75942;BME280;64622;46.220;19.878;2023-06-10T10:07:56;99949.06;;;30.35;48.83
75942;BME280;64622;46.220;19.878;2023-06-10T10:10:25;99952.06;;;28.52;52.36
75942;BME280;64622;46.220;19.878;2023-06-10T10:12:55;99957.41;;;29.54;51.46
75942;BME280;64622;46.220;19.878;2023-06-10T10:15:24;99964.34;;;31.06;46.29
75942;BME280;64622;46.220;19.878;2023-06-10T10:17:58;99957.84;;;31.16;45.82
75942;BME280;64622;46.220;19.878;2023-06-10T10:20:29;99957.38;;;31.27;46.55
75942;BME280;64622;46.220;19.878;2023-06-10T10:22:58;99966.75;;;31.45;45.72
75942;BME280;64622;46.220;19.878;2023-06-10T10:25:34;99955.00;;;29.43;50.65
75942;BME280;64622;46.220;19.878;2023-06-10T10:28:11;99969.81;;;29.52;50.17
75942;BME280;64622;46.220;19.878;2023-06-10T10:30:42;99971.44;;;28.27;52.84
75942;BME280;64622;46.220;19.878;2023-06-10T10:33:40;99974.53;;;28.06;54.72
75942;BME280;64622;46.220;19.878;2023-06-10T10:36:08;99977.91;;;27.43;55.92
75942;BME280;64622;46.220;19.878;2023-06-10T10:38:36;99973.72;;;26.85;58.48
75942;BME280;64622;46.220;19.878;2023-06-10T10:41:02;99971.63;;;26.31;64.90
75942;BME280;64622;46.220;19.878;2023-06-10T10:43:30;99961.63;;;26.66;66.81
75942;BME280;64622;46.220;19.878;2023-06-10T10:45:59;99961.19;;;26.28;68.80
75942;BME280;64622;46.220;19.878;2023-06-10T10:48:27;99963.84;;;26.84;65.92
75942;BME280;64622;46.220;19.878;2023-06-10T10:51:00;99955.03;;;26.62;66.21
75942;BME280;64622;46.220;19.878;2023-06-10T10:53:26;99955.28;;;26.61;66.97
75942;BME280;64622;46.220;19.878;2023-06-10T10:56:19;99948.75;;;27.62;63.13
75942;BME280;64622;46.220;19.878;2023-06-10T10:59:03;99942.56;;;28.20;60.32
75942;BME280;64622;46.220;19.878;2023-06-10T11:01:48;99931.31;;;28.16;59.60
75942;BME280;64622;46.220;19.878;2023-06-10T11:04:18;99943.50;;;27.85;59.27
75942;BME280;64622;46.220;19.878;2023-06-10T11:06:54;99933.44;;;28.24;58.20
75942;BME280;64622;46.220;19.878;2023-06-10T11:09:28;99927.97;;;28.19;56.85
75942;BME280;64622;46.220;19.878;2023-06-10T11:11:57;99933.94;;;27.33;60.40
75942;BME280;64622;46.220;19.878;2023-06-10T11:14:27;99943.00;;;26.12;64.95
75942;BME280;64622;46.220;19.878;2023-06-10T11:16:59;99947.53;;;25.13;69.46
75942;BME280;64622;46.220;19.878;2023-06-10T11:19:36;99956.84;;;24.33;72.94
75942;BME280;64622;46.220;19.878;2023-06-10T11:22:07;99971.72;;;23.99;75.58
75942;BME280;64622;46.220;19.878;2023-06-10T11:24:37;99996.88;;;23.30;81.93
75942;BME280;64622;46.220;19.878;2023-06-10T11:27:17;99994.41;;;21.93;96.40
75942;BME280;64622;46.220;19.878;2023-06-10T11:32:32;99999.44;;;20.98;91.42
75942;BME280;64622;46.220;19.878;2023-06-10T11:35:02;99981.78;;;20.12;93.71
75942;BME280;64622;46.220;19.878;2023-06-10T11:37:30;99985.06;;;19.78;95.18
75942;BME280;64622;46.220;19.878;2023-06-10T11:39:56;99989.75;;;19.89;94.26
75942;BME280;64622;46.220;19.878;2023-06-10T11:42:23;99999.97;;;19.20;95.28
75942;BME280;64622;46.220;19.878;2023-06-10T11:44:54;100001.62;;;18.96;96.42
75942;BME280;64622;46.220;19.878;2023-06-10T11:47:21;99986.03;;;18.92;97.07
75942;BME280;64622;46.220;19.878;2023-06-10T11:49:58;99978.50;;;18.94;96.62
75942;BME280;64622;46.220;19.878;2023-06-10T11:52:29;99984.16;;;19.23;96.21
75942;BME280;64622;46.220;19.878;2023-06-10T11:54:57;99985.37;;;19.21;96.05
75942;BME280;64622;46.220;19.878;2023-06-10T11:57:24;99993.94;;;19.24;95.76
75942;BME280;64622;46.220;19.878;2023-06-10T11:59:50;99993.94;;;18.93;95.87
75942;BME280;64622;46.220;19.878;2023-06-10T12:02:18;99991.28;;;18.87;96.52
75942;BME280;64622;46.220;19.878;2023-06-10T12:04:45;99995.59;;;18.94;97.20
75942;BME280;64622;46.220;19.878;2023-06-10T12:07:18;99980.59;;;18.92;97.78
75942;BME280;64622;46.220;19.878;2023-06-10T12:09:58;99961.84;;;18.90;99.26
75942;BME280;64622;46.220;19.878;2023-06-10T12:12:25;99962.59;;;19.28;100.00
75942;BME280;64622;46.220;19.878;2023-06-10T12:14:59;99960.22;;;19.07;100.00
75942;BME280;64622;46.220;19.878;2023-06-10T12:19:59;99962.13;;;19.31;98.89
75942;BME280;64622;46.220;19.878;2023-06-10T12:22:27;99966.88;;;19.60;98.61
75942;BME280;64622;46.220;19.878;2023-06-10T12:24:58;99963.28;;;19.84;98.52
75942;BME280;64622;46.220;19.878;2023-06-10T12:27:30;99964.22;;;19.90;97.98
75942;BME280;64622;46.220;19.878;2023-06-10T12:29:59;99967.03;;;19.83;98.13
75942;BME280;64622;46.220;19.878;2023-06-10T12:32:43;99956.19;;;20.19;98.02
75942;BME280;64622;46.220;19.878;2023-06-10T12:35:16;99959.91;;;20.36;98.56
75942;BME280;64622;46.220;19.878;2023-06-10T12:38:04;99949.13;;;20.59;99.07
75942;BME280;64622;46.220;19.878;2023-06-10T12:40:34;99953.81;;;20.82;99.31
75942;BME280;64622;46.220;19.878;2023-06-10T12:43:02;99952.88;;;20.88;100.00
75942;BME280;64622;46.220;19.878;2023-06-10T12:45:34;99944.78;;;20.70;100.00
75942;BME280;64622;46.220;19.878;2023-06-10T12:50:37;99940.00;;;20.54;100.00
75942;BME280;64622;46.220;19.878;2023-06-10T12:53:04;99946.69;;;20.69;100.00
75942;BME280;64622;46.220;19.878;2023-06-10T12:55:33;99947.59;;;20.93;100.00
75942;BME280;64622;46.220;19.878;2023-06-10T12:58:00;99951.91;;;21.12;100.00